Etusivu
METAR-TAF:

METAR-TAF

Lentoasemat :

Lemmijoki, Norja

Leveyspiiri: 70-04N, Pituuspiiri: 024-59E, korkeus merenpinnasta: 0 m

Tämänhetkinen sää

Tämä raportti tehtiin 21 minuuttia sitten, kello 11.20 UTC
Tuuli 21 kn etelästä
Lämpötila 15°C
Kosteus 67%
Ilmanpaine 1010 hPa
Näkyvyys 10 km tai enemmän
Muutamia pilviä 3000 ft:n korkeudessa
Hajanaisia pilviä 5000 ft:n korkeudessa

METAR: ENNA 161120Z 17021KT 9999 FEW030 SCT050 15/09 Q1010 RMK WIND 1800FT 18025KT

Aika: 13:41 (11:41 UTC)

Sääennuste

Ennuste voimassa 16. päivästä klo 06 UTC - 17. päivään klo 06 UTC
Tuuli 18 kn etelästä
Näkyvyys 10 km tai enemmän
Hajanaisia pilviä 4000 ft:n korkeudessa
Ajoittain
16. päivästä klo 06 UTC - 17. päivään klo 06 UTC
Tuuli 8 kn etelästä

TAF: ENNA 1606/1706 18018KT 9999 SCT040 TEMPO 1606/1706 18008KT

Säähavainnot ja -ennusteet yli 4000 lentoasemalta (METAR- ja TAF-raportit).

Käytössä olevat sääasemat on merkitty karttaan keltaisilla ja punaisilla pisteillä.

Aseta hiiri pisteen päälle nähdäksesi sääaseman nimen.

Klikkaa sitten nähdäksesi säähavainnot ja -ennusteet.

Kartan vaihtaminen: klikkaa mustalla rastilla varustettuja vihreitä pisteitä, niin voit zoomata sisään; viivalla varustettua vihreää pistettä, niin voit zoomata ulos tai vihreitä nuolia, niin pääset viereisille kartoille.


METAR-TAF: